Time;durP1;ratioP1;P1;durP2;ratioP2;P2;SDS_P1;SDS_P2;PMS_P1;PMS_P2;Temp;Humidity;BMP_temperature;BMP_pressure;BME280_temperature;BME280_humidity;BME280_pressure;Samples;Min_cycle;Max_cycle;Signal;HPM_P1;HPM_P2
2021/09/18 00:05:04;;;;;;;4.30;4.03;;;;;;;17.26;66.57;100144.19;5026668;28;20291;-75
2021/09/18 00:07:47;;;;;;;4.22;3.95;;;;;;;17.28;66.57;100147.44;5012256;28;20133;-75
2021/09/18 00:10:29;;;;;;;3.80;3.50;;;;;;;17.41;66.30;100161.47;4988451;28;20031;-76
2021/09/18 00:12:55;;;;;;;4.97;4.50;;;;;;;17.33;66.31;100148.44;4997183;28;20026;-75
2021/09/18 00:15:31;;;;;;;2.88;2.67;;;;;;;17.38;66.45;100151.06;5010580;28;20033;-75
2021/09/18 00:17:58;;;;;;;2.70;2.53;;;;;;;17.24;66.67;100140.94;4993270;28;20026;-74
2021/09/18 00:20:23;;;;;;;2.85;2.65;;;;;;;17.37;66.61;100157.72;5005551;28;20029;-74
2021/09/18 00:22:54;;;;;;;2.47;2.38;;;;;;;17.31;66.47;100150.72;4994674;28;20086;-75
2021/09/18 00:25:19;;;;;;;2.03;1.92;;;;;;;17.27;66.36;100148.59;5019197;28;20088;-73
2021/09/18 00:27:47;;;;;;;1.63;1.52;;;;;;;17.29;66.56;100142.75;5021646;28;20029;-75
2021/09/18 00:30:13;;;;;;;1.80;1.70;;;;;;;17.21;66.51;100138.78;5008154;28;20088;-76
2021/09/18 00:32:39;;;;;;;3.15;2.95;;;;;;;17.21;66.91;100149.81;5004943;28;20026;-74
2021/09/18 00:35:13;;;;;;;3.05;2.85;;;;;;;17.23;66.53;100150.34;5006612;28;20053;-75
2021/09/18 00:37:39;;;;;;;2.25;1.92;;;;;;;17.14;66.75;100157.75;5015749;28;20104;-75
2021/09/18 00:40:09;;;;;;;2.47;2.10;;;;;;;17.13;67.22;100149.78;4989442;28;20029;-76
2021/09/18 00:42:35;;;;;;;3.28;2.80;;;;;;;17.08;66.88;100153.50;4989499;28;20495;-78
2021/09/18 00:45:00;;;;;;;2.25;2.15;;;;;;;17.15;67.01;100155.81;5002306;28;20115;-77
2021/09/18 00:47:26;;;;;;;2.20;2.10;;;;;;;17.11;66.97;100141.81;5005841;28;20054;-77
2021/09/18 00:49:52;;;;;;;2.50;2.40;;;;;;;17.05;67.44;100140.31;5005180;28;20026;-76
2021/09/18 00:52:19;;;;;;;1.65;1.55;;;;;;;17.05;67.63;100146.66;5021751;28;20095;-77
2021/09/18 00:54:47;;;;;;;1.15;1.13;;;;;;;17.16;67.70;100146.41;4999642;28;20030;-76
2021/09/18 00:57:13;;;;;;;1.70;1.60;;;;;;;17.14;67.31;100146.69;5005110;28;20109;-77
2021/09/18 00:59:39;;;;;;;1.77;1.67;;;;;;;17.14;67.62;100145.91;4987420;28;20034;-77
2021/09/18 01:02:04;;;;;;;3.40;3.10;;;;;;;17.16;67.31;100149.97;4995663;28;20357;-78
2021/09/18 01:04:30;;;;;;;3.72;3.53;;;;;;;17.09;67.50;100149.63;4982010;28;20042;-78
2021/09/18 01:06:55;;;;;;;4.25;3.95;;;;;;;17.08;67.81;100147.97;4996847;28;20034;-77
2021/09/18 01:09:22;;;;;;;2.03;1.92;;;;;;;17.08;67.79;100150.75;4983234;28;20030;-77
2021/09/18 01:11:50;;;;;;;2.30;2.20;;;;;;;17.04;68.30;100155.25;4976834;28;20027;-78
2021/09/18 01:14:16;;;;;;;2.13;2.03;;;;;;;17.05;68.28;100149.41;5005427;28;20156;-79
2021/09/18 01:16:41;;;;;;;2.10;2.00;;;;;;;17.06;68.00;100158.53;5003204;28;20022;-80
2021/09/18 01:19:07;;;;;;;2.38;2.15;;;;;;;17.07;68.03;100158.22;4981811;28;20027;-79
2021/09/18 01:21:33;;;;;;;2.80;2.42;;;;;;;17.08;68.50;100156.25;5003710;28;20110;-77
2021/09/18 01:24:01;;;;;;;2.25;2.15;;;;;;;17.01;68.36;100153.13;5004409;28;20695;-77
2021/09/18 01:26:48;;;;;;;;;;;;;;;;;;;;;
2021/09/18 01:29:34;;;;;;;1.30;1.27;;;;;;;17.03;68.20;100139.84;5008100;28;20073;-78
2021/09/18 01:32:02;;;;;;;2.00;1.90;;;;;;;17.06;68.29;100142.78;4997625;28;20038;-79
2021/09/18 01:34:49;;;;;;;2.55;1.45;;;;;;;17.10;67.90;100151.25;4976583;28;20038;-80
2021/09/18 01:37:28;;;;;;;;;;;;;;;;;;;;;
2021/09/18 01:40:04;;;;;;;;;;;;;;;;;;;;;
2021/09/18 01:42:44;;;;;;;1.02;1.02;;;;;;;17.07;68.57;100136.13;5006657;28;20108;-80
2021/09/18 01:45:11;;;;;;;0.82;0.82;;;;;;;17.09;68.41;100138.56;5002249;28;20027;-81
2021/09/18 01:48:04;;;;;;;;;;;;;;;;;;;;;
2021/09/18 01:50:52;;;;;;;1.52;1.42;;;;;;;17.18;68.69;100139.41;5005245;28;20049;-80
2021/09/18 01:53:21;;;;;;;1.35;1.25;;;;;;;17.12;68.95;100121.34;4993613;28;20030;-76
2021/09/18 01:55:47;;;;;;;1.90;1.80;;;;;;;17.25;68.38;100134.25;5017408;28;20013;-76
2021/09/18 01:58:35;;;;;;;;;;;;;;;;;;;;;
2021/09/18 02:01:02;;;;;;;1.77;1.63;;;;;;;17.29;68.50;100137.22;5008296;28;20049;-76
2021/09/18 02:03:29;;;;;;;1.92;1.70;;;;;;;17.31;68.62;100140.47;4991242;28;20401;-76
2021/09/18 02:05:55;;;;;;;2.15;2.05;;;;;;;17.27;69.20;100129.25;4978546;28;20034;-77
2021/09/18 02:08:22;;;;;;;2.33;2.22;;;;;;;17.28;68.86;100124.53;5025071;28;20089;-76
2021/09/18 02:11:27;;;;;;;1.33;1.23;;;;;;;17.36;69.02;100126.50;5020467;28;20025;-77
2021/09/18 02:14:03;;;;;;;1.00;1.00;;;;;;;17.32;69.03;100127.44;5006197;28;20041;-78
2021/09/18 02:17:10;;;;;;;0.80;0.80;;;;;;;17.44;68.65;100130.44;5006761;28;20028;-73
2021/09/18 02:19:35;;;;;;;0.70;0.70;;;;;;;17.35;69.01;100126.84;5000057;28;20387;-73
2021/09/18 02:22:01;;;;;;;2.13;1.67;;;;;;;17.28;69.24;100119.78;4961742;28;20062;-73
2021/09/18 02:24:27;;;;;;;1.70;1.27;;;;;;;17.26;69.24;100119.31;5001396;28;20041;-73
2021/09/18 02:26:52;;;;;;;1.33;1.30;;;;;;;17.36;69.29;100133.97;5020607;28;20060;-72
2021/09/18 02:29:21;;;;;;;1.73;1.63;;;;;;;17.36;69.00;100136.72;5018997;28;20033;-77
2021/09/18 02:31:51;;;;;;;1.70;1.60;;;;;;;17.27;69.42;100129.25;5020328;28;20353;-75
2021/09/18 02:34:27;;;;;;;;;;;;;;;;;;;;;
2021/09/18 02:36:53;;;;;;;1.83;1.73;;;;;;;17.38;69.30;100135.28;5010890;28;20087;-74
2021/09/18 02:39:18;;;;;;;1.85;1.73;;;;;;;17.28;69.58;100117.03;4992158;28;20117;-73
2021/09/18 02:41:54;;;;;;;1.33;1.33;;;;;;;17.26;69.42;100111.03;5003449;28;21214;-72
2021/09/18 02:44:19;;;;;;;2.17;2.08;;;;;;;17.28;69.77;100108.75;5014213;28;20058;-73
2021/09/18 02:47:39;;;;;;;1.27;1.17;;;;;;;17.47;69.60;100132.56;5013199;28;20480;-75
2021/09/18 02:50:07;;;;;;;1.20;1.00;;;;;;;17.47;69.14;100129.00;5013324;28;20048;-77
2021/09/18 02:52:33;;;;;;;1.13;0.88;;;;;;;17.43;69.95;100113.03;5036028;28;20036;-77
2021/09/18 02:55:08;;;;;;;1.00;1.00;;;;;;;17.44;69.61;100113.84;5032751;28;20021;-76
2021/09/18 02:57:43;;;;;;;1.05;1.05;;;;;;;17.40;69.64;100097.06;4996002;28;20046;-78
2021/09/18 03:00:11;;;;;;;11.18;1.60;;;;;;;17.43;69.31;100103.91;5000438;28;20042;-77
2021/09/18 03:02:37;;;;;;;1.40;1.30;;;;;;;17.42;69.34;100105.03;5001133;28;20117;-76
2021/09/18 03:05:09;;;;;;;0.98;0.98;;;;;;;17.45;69.48;100107.19;5017035;28;20049;-75
2021/09/18 03:07:35;;;;;;;2.80;2.60;;;;;;;17.43;69.33;100114.97;4996221;28;20022;-78
2021/09/18 03:10:10;;;;;;;2.42;2.22;;;;;;;17.51;69.56;100132.72;5007996;28;20030;-77
2021/09/18 03:12:36;;;;;;;1.63;1.52;;;;;;;17.35;69.46;100108.28;5007023;28;20029;-76
2021/09/18 03:15:27;;;;;;;;;;;;;;;;;;;;;
2021/09/18 03:18:33;;;;;;;2.30;2.20;;;;;;;17.33;69.62;100099.50;5031789;28;20062;-82
2021/09/18 03:20:59;;;;;;;1.45;1.35;;;;;;;17.48;69.72;100116.78;5012651;28;20032;-75
2021/09/18 03:23:50;;;;;;;1.65;1.55;;;;;;;17.49;69.56;100113.69;4985945;28;20030;-75
2021/09/18 03:26:16;;;;;;;1.45;1.35;;;;;;;17.41;69.67;100108.97;5004445;28;20033;-75
2021/09/18 03:28:43;;;;;;;0.75;0.75;;;;;;;17.44;69.64;100105.56;5016442;28;20022;-76
2021/09/18 03:31:12;;;;;;;0.82;0.82;;;;;;;17.48;69.52;100106.56;5002068;28;20026;-76
2021/09/18 03:33:39;;;;;;;1.77;1.67;;;;;;;17.49;69.33;100102.63;5009126;28;20476;-76
2021/09/18 03:36:05;;;;;;;1.63;1.52;;;;;;;17.55;69.73;100106.06;4990324;28;20026;-76
2021/09/18 03:38:38;;;;;;;2.30;2.20;;;;;;;17.47;69.49;100104.91;5006034;28;20100;-76
2021/09/18 03:41:03;;;;;;;2.75;2.55;;;;;;;17.52;69.72;100107.56;5026015;28;20030;-76
2021/09/18 03:43:29;;;;;;;4.25;2.05;;;;;;;17.46;69.61;100108.81;5032698;28;20076;-74
2021/09/18 03:45:55;;;;;;;1.60;1.50;;;;;;;17.42;69.55;100099.53;5034319;28;20022;-75
2021/09/18 03:48:20;;;;;;;2.17;1.38;;;;;;;17.51;69.64;100116.97;5020615;28;20022;-76
2021/09/18 03:50:55;;;;;;;1.83;1.73;;;;;;;17.42;69.43;100114.16;5025019;28;20026;-77
2021/09/18 03:53:23;;;;;;;1.98;1.88;;;;;;;17.44;69.82;100113.84;5003776;28;20034;-76
2021/09/18 03:55:48;;;;;;;2.45;2.28;;;;;;;17.41;69.93;100117.25;4986546;28;20056;-77
2021/09/18 03:58:14;;;;;;;1.92;1.83;;;;;;;17.40;69.39;100112.84;5017150;28;20040;-76
2021/09/18 04:00:57;;;;;;;2.63;2.42;;;;;;;17.44;69.91;100122.16;5021389;28;20033;-71
2021/09/18 04:03:23;;;;;;;1.90;1.80;;;;;;;17.37;69.75;100119.81;5001257;28;20026;-73
2021/09/18 04:05:51;;;;;;;2.65;2.55;;;;;;;17.34;69.72;100112.19;5018899;28;20041;-73
2021/09/18 04:08:31;;;;;;;2.58;2.38;;;;;;;17.35;69.64;100118.53;5005302;28;20399;-73
2021/09/18 04:11:14;;;;;;;3.03;2.78;;;;;;;17.33;69.95;100115.25;5004594;28;20022;-75
2021/09/18 04:13:55;;;;;;;;;;;;;;;;;;;;;
2021/09/18 04:16:21;;;;;;;1.50;1.40;;;;;;;17.33;69.86;100120.78;5013139;28;20109;-74
2021/09/18 04:19:06;;;;;;;1.27;1.27;;;;;;;17.33;69.64;100124.34;5006165;28;20040;-77
2021/09/18 04:21:43;;;;;;;1.40;1.30;;;;;;;17.32;69.95;100130.22;4994254;28;20152;-77
2021/09/18 04:24:09;;;;;;;1.88;1.77;;;;;;;17.21;69.78;100113.91;5005508;28;20099;-77
2021/09/18 04:26:34;;;;;;;1.70;1.63;;;;;;;17.22;69.89;100126.59;4994658;28;20066;-76
2021/09/18 04:29:03;;;;;;;1.50;1.48;;;;;;;17.19;69.86;100121.72;5008365;28;20037;-77
2021/09/18 04:31:33;;;;;;;1.00;1.00;;;;;;;17.20;70.11;100122.53;5003518;28;20026;-74
2021/09/18 04:34:19;;;;;;;;;;;;;;;;;;;;;
2021/09/18 04:36:44;;;;;;;0.90;0.90;;;;;;;17.22;69.80;100129.38;5015852;28;20089;-76
2021/09/18 04:39:10;;;;;;;0.82;0.82;;;;;;;17.19;69.80;100127.25;5023713;28;20068;-76
2021/09/18 04:41:35;;;;;;;0.70;0.70;;;;;;;17.21;70.11;100133.25;4982220;28;20036;-77
2021/09/18 04:44:01;;;;;;;0.95;0.95;;;;;;;17.12;69.62;100115.81;4988835;28;20057;-76
2021/09/18 04:46:29;;;;;;;1.27;1.10;;;;;;;17.14;69.68;100124.59;4991917;28;20025;-75
2021/09/18 04:49:10;;;;;;;;;;;;;;;;;;;;;
2021/09/18 04:51:39;;;;;;;0.77;0.77;;;;;;;17.16;69.79;100125.13;5026151;28;20085;-77
2021/09/18 04:54:14;;;;;;;0.90;0.70;;;;;;;17.11;70.24;100114.19;5000715;28;20038;-77
2021/09/18 04:56:58;;;;;;;0.63;0.63;;;;;;;17.15;69.78;100126.25;5006146;28;20026;-77
2021/09/18 04:59:34;;;;;;;1.00;1.00;;;;;;;17.20;69.84;100133.56;5004361;28;20030;-77
2021/09/18 05:01:59;;;;;;;1.20;1.20;;;;;;;17.16;69.92;100127.88;5017843;28;20036;-77
2021/09/18 05:04:25;;;;;;;0.55;0.55;;;;;;;17.07;69.62;100114.03;4976340;28;20104;-77
2021/09/18 05:06:58;;;;;;;0.90;0.90;;;;;;;17.08;69.37;100120.34;4978968;28;20042;-77
2021/09/18 05:09:23;;;;;;;0.80;0.80;;;;;;;17.01;69.83;100117.22;4993789;28;20027;-77
2021/09/18 05:11:57;;;;;;;0.43;0.43;;;;;;;17.10;69.63;100129.16;4982546;28;20033;-77
2021/09/18 05:14:23;;;;;;;0.50;0.50;;;;;;;17.11;70.04;100136.28;4977782;28;20027;-75
2021/09/18 05:16:51;;;;;;;0.98;0.98;;;;;;;17.10;69.28;100134.69;4962395;28;20047;-77
2021/09/18 05:19:17;;;;;;;1.13;1.13;;;;;;;17.11;69.25;100136.28;4970290;28;20027;-77
2021/09/18 05:21:43;;;;;;;1.42;1.35;;;;;;;17.03;69.84;100129.59;4995851;28;20091;-77
2021/09/18 05:24:18;;;;;;;;;;;;;;;;;;;;;
2021/09/18 05:26:44;;;;;;;1.45;1.45;;;;;;;16.93;69.55;100127.91;4983174;28;20087;-78
2021/09/18 05:29:19;;;;;;;1.50;1.50;;;;;;;16.87;69.62;100126.41;4970148;28;20035;-77
2021/09/18 05:31:45;;;;;;;1.27;1.27;;;;;;;16.82;69.43;100122.94;4984535;28;20026;-77
2021/09/18 05:34:10;;;;;;;1.75;1.65;;;;;;;16.83;69.40;100136.44;4983188;28;20030;-76
2021/09/18 05:36:38;;;;;;;1.10;1.10;;;;;;;16.77;69.65;100137.69;4984698;28;20035;-76
2021/09/18 05:39:04;;;;;;;1.10;1.10;;;;;;;16.69;69.89;100136.50;4988315;28;20019;-76
2021/09/18 05:41:33;;;;;;;1.60;1.50;;;;;;;16.64;69.85;100127.53;4980325;28;20037;-77
2021/09/18 05:43:58;;;;;;;1.00;1.00;;;;;;;16.66;69.81;100150.94;4982623;28;20034;-75
2021/09/18 05:46:24;;;;;;;0.73;0.73;;;;;;;16.58;70.16;100146.16;4979346;28;20027;-76
2021/09/18 05:49:10;;;;;;;0.90;0.90;;;;;;;16.49;70.19;100142.53;4960174;29;20031;-76
2021/09/18 05:51:45;;;;;;;0.50;0.50;;;;;;;16.40;70.02;100131.44;4981281;28;20121;-77
2021/09/18 05:54:10;;;;;;;0.90;0.90;;;;;;;16.46;70.12;100137.66;4980054;28;20053;-77
2021/09/18 05:56:36;;;;;;;0.75;0.75;;;;;;;16.48;70.19;100141.69;4982624;28;20035;-77
2021/09/18 05:59:09;;;;;;;1.77;1.67;;;;;;;16.50;69.58;100144.97;4982271;28;20031;-77
2021/09/18 06:01:34;;;;;;;1.35;1.35;;;;;;;16.53;70.11;100147.09;4977105;28;20031;-76
2021/09/18 06:04:02;;;;;;;1.10;1.10;;;;;;;16.52;69.99;100141.91;4970698;28;20062;-76
2021/09/18 06:06:27;;;;;;;1.35;1.35;;;;;;;16.53;69.83;100143.53;4985662;28;20035;-73
2021/09/18 06:08:53;;;;;;;0.75;0.75;;;;;;;16.64;69.37;100147.66;4946131;28;20054;-73
2021/09/18 06:11:20;;;;;;;1.00;0.95;;;;;;;16.66;69.61;100155.63;4981292;28;20023;-75
2021/09/18 06:13:46;;;;;;;0.90;0.90;;;;;;;16.67;69.46;100149.00;4981107;28;20054;-76
2021/09/18 06:16:14;;;;;;;0.80;0.75;;;;;;;16.67;69.57;100154.50;4981397;28;21086;-76
2021/09/18 06:18:40;;;;;;;1.23;1.20;;;;;;;16.64;69.20;100144.91;4979895;28;20031;-75
2021/09/18 06:21:08;;;;;;;1.30;1.30;;;;;;;16.70;69.10;100148.34;4973437;28;20094;-77
2021/09/18 06:23:37;;;;;;;1.13;1.13;;;;;;;16.79;69.12;100160.28;4962447;28;20050;-77
2021/09/18 06:26:07;;;;;;;1.05;0.95;;;;;;;16.79;69.39;100151.97;4979355;28;20026;-77
2021/09/18 06:28:33;;;;;;;1.10;1.10;;;;;;;16.81;68.83;100152.50;4978019;28;20023;-77
2021/09/18 06:30:59;;;;;;;1.50;1.40;;;;;;;16.91;69.44;100159.75;4984687;28;20031;-78
2021/09/18 06:33:27;;;;;;;1.08;1.08;;;;;;;16.91;69.20;100160.56;4977015;28;20092;-76
2021/09/18 06:35:53;;;;;;;0.98;0.98;;;;;;;17.00;68.94;100168.09;4979600;28;20037;-77
2021/09/18 06:38:22;;;;;;;1.20;1.20;;;;;;;17.07;69.18;100176.75;4981402;28;20026;-77
2021/09/18 06:40:50;;;;;;;0.93;0.93;;;;;;;17.08;69.14;100165.38;4982906;28;20023;-77
2021/09/18 06:43:29;;;;;;;1.30;1.30;;;;;;;17.17;68.71;100173.72;4979202;28;20031;-78
2021/09/18 06:45:55;;;;;;;1.40;1.40;;;;;;;17.25;68.74;100174.91;4982053;28;20027;-75
2021/09/18 06:48:23;;;;;;;1.85;1.73;;;;;;;17.30;68.48;100171.97;4978256;28;20030;-76
2021/09/18 06:50:48;;;;;;;1.92;1.83;;;;;;;17.35;68.96;100173.81;4977256;28;20042;-73
2021/09/18 06:53:14;;;;;;;1.50;1.50;;;;;;;17.44;69.03;100180.19;4977607;28;20736;-77
2021/09/18 06:55:39;;;;;;;1.00;1.00;;;;;;;17.54;68.35;100177.13;4982300;28;20043;-76
2021/09/18 06:58:05;;;;;;;1.27;1.08;;;;;;;17.58;68.70;100172.59;4996079;28;20026;-75
2021/09/18 07:00:33;;;;;;;1.20;1.20;;;;;;;17.71;68.47;100175.56;4977439;28;20038;-76
2021/09/18 07:02:59;;;;;;;1.52;1.42;;;;;;;17.78;68.23;100175.91;4985425;28;20038;-76
2021/09/18 07:05:28;;;;;;;1.92;1.83;;;;;;;17.81;68.18;100164.22;4989362;28;20070;-76
2021/09/18 07:08:28;;;;;;;1.20;1.20;;;;;;;17.97;68.46;100172.91;4964738;28;20472;-78
2021/09/18 07:10:54;;;;;;;1.10;1.10;;;;;;;18.09;67.81;100180.56;4967140;28;20031;-76
2021/09/18 07:13:20;;;;;;;1.17;1.17;;;;;;;18.17;67.58;100174.25;4948178;28;20042;-77
2021/09/18 07:19:27;;;;;;;1.70;1.60;;;;;;;18.34;67.12;100159.63;4941613;29;20032;-74
2021/09/18 07:21:53;;;;;;;1.67;1.58;;;;;;;18.38;67.08;100159.78;4977029;28;20038;-74
2021/09/18 07:24:31;;;;;;;0.98;0.98;;;;;;;18.52;67.54;100170.72;4983011;28;20038;-77
2021/09/18 07:27:20;;;;;;;;;;;;;;;;;;;;;
2021/09/18 07:29:47;;;;;;;1.40;1.30;;;;;;;18.65;67.09;100176.06;4981434;28;20098;-75
2021/09/18 07:32:13;;;;;;;2.28;2.17;;;;;;;18.65;66.69;100178.84;4989273;28;20039;-76
2021/09/18 07:35:06;;;;;;;1.65;1.65;;;;;;;18.62;66.88;100171.19;4966932;28;20027;-75
2021/09/18 07:37:38;;;;;;;0.90;0.90;;;;;;;18.67;66.54;100172.97;4985380;28;20045;-73
2021/09/18 07:40:10;;;;;;;1.90;1.80;;;;;;;18.82;66.30;100178.00;4978183;28;20476;-71
2021/09/18 07:42:45;;;;;;;1.30;1.30;;;;;;;18.97;66.20;100182.25;4988595;28;20058;-75
2021/09/18 07:45:21;;;;;;;;;;;;;;;;;;;;;
2021/09/18 07:47:47;;;;;;;1.60;1.50;;;;;;;19.35;66.13;100187.03;4993351;28;20085;-76
2021/09/18 07:50:13;;;;;;;1.08;1.08;;;;;;;19.53;65.90;100181.44;4970920;28;20089;-77
2021/09/18 07:52:47;;;;;;;0.90;0.90;;;;;;;19.81;65.93;100181.00;4973871;28;20634;-76
2021/09/18 07:55:13;;;;;;;0.98;0.98;;;;;;;20.33;65.69;100166.00;4987674;28;20027;-74
2021/09/18 07:57:46;;;;;;;0.52;0.52;;;;;;;20.95;65.11;100172.66;4984122;28;20034;-77
2021/09/18 08:00:12;;;;;;;1.65;1.55;;;;;;;21.56;63.87;100190.66;4970576;28;20038;-75
2021/09/18 08:02:38;;;;;;;1.35;1.25;;;;;;;21.84;62.72;100189.97;4977176;28;20528;-76
2021/09/18 08:05:04;;;;;;;1.52;1.52;;;;;;;22.09;62.46;100191.59;5008565;28;20115;-75
2021/09/18 08:07:30;;;;;;;1.15;1.15;;;;;;;22.35;62.35;100204.34;5018477;28;20094;-78
2021/09/18 08:10:07;;;;;;;1.75;1.65;;;;;;;22.51;61.56;100186.91;5007127;28;20102;-75
2021/09/18 08:12:33;;;;;;;1.50;1.40;;;;;;;22.87;61.68;100187.91;4976437;28;20034;-78
2021/09/18 08:15:23;;;;;;;;;;;;;;;;;;;;;
2021/09/18 08:17:51;;;;;;;1.17;1.17;;;;;;;23.70;59.55;100188.94;5018282;28;20439;-76
2021/09/18 08:20:22;;;;;;;1.55;1.52;;;;;;;24.00;59.28;100202.44;5019704;28;20033;-76
2021/09/18 08:22:48;;;;;;;1.23;1.23;;;;;;;24.32;58.90;100196.78;5015127;28;20025;-78
2021/09/18 08:25:15;;;;;;;1.15;0.93;;;;;;;24.52;57.85;100200.44;4999437;28;20056;-75
2021/09/18 08:28:02;;;;;;;;;;;;;;;;;;;;;
2021/09/18 08:30:30;;;;;;;1.13;1.02;;;;;;;25.81;56.68;100198.47;5019490;28;20201;-77
2021/09/18 08:32:56;;;;;;;1.00;1.00;;;;;;;26.46;55.62;100196.66;5000494;28;20045;-77
2021/09/18 08:35:21;;;;;;;0.70;0.70;;;;;;;27.06;54.48;100189.38;4969251;28;20034;-78
2021/09/18 08:37:47;;;;;;;1.10;1.10;;;;;;;27.66;54.00;100197.59;5003232;28;20532;-77
2021/09/18 08:40:13;;;;;;;1.25;1.23;;;;;;;28.20;52.55;100205.66;4990469;28;20029;-77
2021/09/18 08:42:44;;;;;;;0.70;0.70;;;;;;;28.61;51.84;100208.31;4984567;28;20045;-77
2021/09/18 08:45:13;;;;;;;1.20;1.13;;;;;;;29.15;51.28;100208.50;4983991;28;20034;-75
2021/09/18 08:47:45;;;;;;;0.40;0.40;;;;;;;29.62;50.84;100207.78;5017230;28;20028;-77
2021/09/18 08:50:16;;;;;;;0.75;0.75;;;;;;;30.15;49.73;100194.88;5019990;28;20041;-76
2021/09/18 08:52:42;;;;;;;1.27;1.27;;;;;;;30.65;48.21;100217.31;5018437;28;20018;-77
2021/09/18 08:55:10;;;;;;;1.05;1.05;;;;;;;31.00;46.93;100201.44;5007157;28;20101;-76
2021/09/18 08:57:36;;;;;;;0.82;0.82;;;;;;;31.32;45.97;100195.59;5000579;28;20025;-76
2021/09/18 09:00:10;;;;;;;2.58;1.38;;;;;;;31.75;45.52;100197.31;5013170;28;20029;-76
2021/09/18 09:02:40;;;;;;;0.63;0.63;;;;;;;32.25;44.65;100213.00;4999294;28;20022;-76
2021/09/18 09:05:10;;;;;;;0.90;0.90;;;;;;;32.47;43.22;100218.44;4985854;28;20078;-77
2021/09/18 09:07:36;;;;;;;1.58;1.48;;;;;;;32.64;41.65;100211.75;4988559;28;20120;-77
2021/09/18 09:10:04;;;;;;;1.48;1.40;;;;;;;32.68;40.95;100218.22;5000738;28;20085;-75
2021/09/18 09:12:39;;;;;;;2.10;1.92;;;;;;;33.03;40.53;100212.47;5004955;28;20096;-77
2021/09/18 09:15:09;;;;;;;2.63;2.53;;;;;;;33.30;39.05;100214.56;4998642;28;20034;-77
2021/09/18 09:17:43;;;;;;;2.05;1.95;;;;;;;33.40;38.54;100211.56;5021219;28;20129;-77
2021/09/18 09:20:22;;;;;;;0.90;0.90;;;;;;;33.65;38.56;100204.69;4989232;28;20045;-77
2021/09/18 09:22:48;;;;;;;0.75;0.75;;;;;;;34.00;38.65;100213.03;4998947;28;20020;-76
2021/09/18 09:25:36;;;;;;;0.80;0.80;;;;;;;34.59;37.44;100217.19;4999125;28;20053;-75
2021/09/18 09:28:22;;;;;;;1.40;1.40;;;;;;;34.51;35.95;100210.84;4999732;28;20026;-77
2021/09/18 09:30:48;;;;;;;1.23;1.02;;;;;;;34.49;36.47;100207.66;5021496;28;20030;-76
2021/09/18 09:33:14;;;;;;;1.45;1.35;;;;;;;34.76;35.55;100201.00;5007435;28;20101;-77
2021/09/18 09:35:42;;;;;;;1.20;1.20;;;;;;;35.03;35.37;100203.69;5005134;28;20041;-75
2021/09/18 09:38:08;;;;;;;1.00;1.00;;;;;;;35.32;34.13;100196.56;4996556;28;20053;-76
2021/09/18 09:40:41;;;;;;;1.25;1.25;;;;;;;35.78;33.86;100211.69;4981716;28;20034;-77
2021/09/18 09:43:17;;;;;;;1.08;1.08;;;;;;;36.27;33.02;100211.59;5016342;28;20029;-76
2021/09/18 09:45:46;;;;;;;0.60;0.60;;;;;;;36.52;32.46;100207.25;5007612;28;20035;-76
2021/09/18 09:48:26;;;;;;;0.88;0.88;;;;;;;36.89;31.86;100218.41;5016926;28;20029;-76
2021/09/18 09:51:00;;;;;;;0.43;0.43;;;;;;;37.23;31.74;100217.78;5003756;28;20033;-75
2021/09/18 09:53:30;;;;;;;1.00;1.00;;;;;;;37.59;30.82;100205.22;5003927;28;20029;-77
2021/09/18 09:55:55;;;;;;;1.38;1.38;;;;;;;37.77;28.71;100206.72;5021636;28;20062;-76
2021/09/18 09:58:26;;;;;;;1.00;1.00;;;;;;;37.64;28.89;100204.63;4988653;28;20038;-77
2021/09/18 10:00:56;;;;;;;1.45;1.35;;;;;;;37.57;28.46;100199.16;5000229;28;20037;-75
2021/09/18 10:03:23;;;;;;;0.93;0.80;;;;;;;37.64;28.82;100201.78;5003942;28;20360;-75
2021/09/18 10:05:56;;;;;;;0.60;0.60;;;;;;;38.10;28.81;100207.19;4997519;28;20052;-76
2021/09/18 10:08:24;;;;;;;0.70;0.70;;;;;;;38.48;28.12;100208.25;5003260;28;20095;-77
2021/09/18 10:10:51;;;;;;;0.60;0.60;;;;;;;38.78;27.88;100197.38;5019454;28;20030;-76
2021/09/18 10:13:22;;;;;;;0.63;0.30;;;;;;;39.27;28.22;100196.69;5004752;28;20028;-76
2021/09/18 10:15:53;;;;;;;0.70;0.68;;;;;;;39.91;27.47;100196.06;5001337;28;20080;-77
2021/09/18 10:18:23;;;;;;;0.43;0.43;;;;;;;40.41;26.62;100193.03;5000896;28;20065;-77
2021/09/18 10:23:24;;;;;;;0.80;0.80;;;;;;;41.27;24.21;100193.09;5017166;28;20033;-77
2021/09/18 10:25:55;;;;;;;1.17;1.08;;;;;;;40.94;22.59;100194.69;4997667;28;20037;-76
2021/09/18 10:28:44;;;;;;;0.50;0.50;;;;;;;41.10;23.76;100178.41;5001286;28;20034;-75
2021/09/18 10:31:16;;;;;;;0.43;0.43;;;;;;;41.38;23.58;100184.78;5016004;28;20037;-76
2021/09/18 10:33:51;;;;;;;1.20;1.20;;;;;;;41.52;22.13;100184.06;5014784;28;20113;-76
2021/09/18 10:36:33;;;;;;;1.20;1.10;;;;;;;41.29;21.55;100179.09;4997057;28;20113;-76
2021/09/18 10:39:19;;;;;;;0.38;0.38;;;;;;;41.59;23.11;100179.25;5018537;28;20044;-76
2021/09/18 10:41:57;;;;;;;0.60;0.60;;;;;;;42.13;23.00;100182.19;5000382;28;20030;-76
2021/09/18 10:44:44;;;;;;;0.68;0.68;;;;;;;42.45;21.52;100173.94;5014689;28;20049;-76
2021/09/18 10:47:10;;;;;;;0.75;0.75;;;;;;;42.51;20.91;100175.63;5012807;28;20034;-77
2021/09/18 10:49:40;;;;;;;0.70;0.70;;;;;;;42.73;21.56;100177.34;5001167;28;20861;-76
2021/09/18 10:52:24;;;;;;;0.95;0.77;;;;;;;42.90;20.80;100169.78;5014547;28;20559;-76
2021/09/18 10:55:10;;;;;;;3.03;0.88;;;;;;;42.95;19.79;100176.09;5017878;28;20249;-76
2021/09/18 10:57:38;;;;;;;0.60;0.55;;;;;;;42.44;20.41;100173.16;5015655;28;20068;-77
2021/09/18 11:00:15;;;;;;;0.85;0.85;;;;;;;41.36;20.45;100150.09;5003869;28;20026;-76
2021/09/18 11:02:50;;;;;;;0.60;0.60;;;;;;;39.89;21.65;100149.13;4981881;28;20132;-77
2021/09/18 11:05:22;;;;;;;1.77;1.20;;;;;;;39.18;21.90;100151.72;4994395;28;20050;-72
2021/09/18 11:08:21;;;;;;;0.68;0.68;;;;;;;38.07;22.51;100156.72;4994170;28;20046;-72
2021/09/18 11:10:58;;;;;;;0.47;0.45;;;;;;;37.50;24.49;100153.78;5011625;28;20042;-71
2021/09/18 11:13:37;;;;;;;0.77;0.77;;;;;;;37.66;23.74;100149.97;5004653;28;20042;-72
2021/09/18 11:16:41;;;;;;;0.95;0.95;;;;;;;38.03;23.21;100156.06;5004124;28;20058;-73
2021/09/18 11:19:14;;;;;;;0.65;0.65;;;;;;;37.35;23.81;100148.59;5003556;28;20030;-76
2021/09/18 11:21:47;;;;;;;0.73;0.73;;;;;;;37.01;24.37;100138.66;5007956;28;20054;-73
2021/09/18 11:24:15;;;;;;;3.05;0.70;;;;;;;36.60;24.74;100139.53;5006240;28;20026;-73
2021/09/18 11:26:51;;;;;;;0.80;0.80;;;;;;;35.88;25.13;100125.28;5014348;28;20026;-75
2021/09/18 11:29:33;;;;;;;2.50;0.50;;;;;;;36.53;26.00;100134.06;4991673;28;20034;-73
2021/09/18 11:32:06;;;;;;;0.70;0.70;;;;;;;36.75;25.15;100134.19;4994586;28;20108;-74
2021/09/18 11:34:44;;;;;;;0.40;0.40;;;;;;;37.31;25.63;100119.41;4988297;28;20026;-71
2021/09/18 11:37:35;;;;;;;1.05;0.85;;;;;;;37.93;24.87;100129.50;4987411;28;20039;-72
2021/09/18 11:40:08;;;;;;;3.13;0.52;;;;;;;39.05;24.82;100120.34;4991383;28;20121;-74
2021/09/18 11:42:39;;;;;;;0.50;0.40;;;;;;;39.20;23.45;100136.94;4998780;28;20038;-72
2021/09/18 11:45:14;;;;;;;0.50;0.50;;;;;;;39.14;23.41;100130.25;4997692;28;20034;-71
2021/09/18 11:47:56;;;;;;;1.25;0.80;;;;;;;38.13;23.26;100131.22;4988600;28;20046;-73
2021/09/18 11:50:39;;;;;;;0.95;0.95;;;;;;;36.87;24.01;100127.72;4993015;28;20057;-72
2021/09/18 11:53:12;;;;;;;0.65;0.65;;;;;;;35.24;25.41;100128.50;5000369;28;20405;-72
2021/09/18 11:55:53;;;;;;;0.50;0.50;;;;;;;34.87;27.18;100127.78;4995707;28;20022;-72
2021/09/18 11:58:28;;;;;;;0.82;0.82;;;;;;;35.90;26.20;100122.78;5000225;28;20026;-72
2021/09/18 12:00:53;;;;;;;;;;;;;;;35.72;24.96;100119.59;4990497;28;20077;-72
2021/09/18 12:03:38;;;;;;;0.60;0.60;;;;;;;34.49;26.12;100119.69;5000189;28;19964;-70
2021/09/18 12:06:07;;;;;;;0.45;0.45;;;;;;;33.14;27.08;100107.53;4990779;28;20109;-71
2021/09/18 12:08:34;;;;;;;0.40;0.40;;;;;;;31.98;28.87;100097.75;4997760;28;20037;-71
2021/09/18 12:11:09;;;;;;;0.70;0.70;;;;;;;31.04;30.01;100106.22;5001290;28;20042;-73
2021/09/18 12:13:39;;;;;;;2.17;0.80;;;;;;;30.15;31.14;100099.00;5000814;28;20045;-73
2021/09/18 12:16:05;;;;;;;0.50;0.50;;;;;;;29.57;32.16;100099.09;4975436;28;20038;-72